<?xml version='1.0' encoding='UTF-8'?>
<gpx xmlns="http://www.topografix.com/GPX/1/1" creator="www.balnam.be" version="1.1" xmlns:xsi="http://www.w3.org/2001/XMLSchema-instance" xsi:schemaLocation="http://www.topografix.com/GPX/1/1 http://www.topografix.com/GPX/1/1/gpx.xsd">
<trk>
<name>hfbfb1</name>
<cmt>r</cmt>
<desc>Flobecq Chemin n°1 Sentier des Moines</desc>
<link href="https://chemins.be/flobecq/chemin/1"/><trkseg>
<trkpt lat="50.763849" lon="3.690859"><time>2026-05-02T22:21:15Z</time></trkpt>
<trkpt lat="50.763706" lon="3.690988"><time>2026-05-02T22:31:15Z</time></trkpt>
<trkpt lat="50.763985" lon="3.691943"><time>2026-05-02T22:41:15Z</time></trkpt>
</trkseg></trk>
<trk>
<name>hfbfb1</name>
<cmt>v</cmt>
<desc>Flobecq Chemin n°1 Sentier des Moines</desc>
<link href="https://chemins.be/flobecq/chemin/1"/><trkseg>
<trkpt lat="50.763985" lon="3.691943"><time>2026-05-02T22:41:15Z</time></trkpt>
<trkpt lat="50.764616" lon="3.693606"><time>2026-05-02T22:51:15Z</time></trkpt>
<trkpt lat="50.764392" lon="3.695075"><time>2026-05-02T23:01:15Z</time></trkpt>
<trkpt lat="50.764954" lon="3.698901"><time>2026-05-02T23:11:15Z</time></trkpt>
<trkpt lat="50.766003" lon="3.706040"><time>2026-05-02T23:21:15Z</time></trkpt>
<trkpt lat="50.766668" lon="3.707049"><time>2026-05-02T23:31:15Z</time></trkpt>
<trkpt lat="50.766918" lon="3.707963"><time>2026-05-02T23:41:15Z</time></trkpt>
</trkseg></trk>
<trk>
<name>hfbfb1</name>
<cmt>r</cmt>
<desc>Flobecq Chemin n°1 Sentier des Moines</desc>
<link href="https://chemins.be/flobecq/chemin/1"/><trkseg>
<trkpt lat="50.766918" lon="3.707963"><time>2026-05-02T23:41:15Z</time></trkpt>
<trkpt lat="50.767404" lon="3.709492"><time>2026-05-02T23:51:15Z</time></trkpt>
<trkpt lat="50.767286" lon="3.709607"><time>2026-05-03T00:01:15Z</time></trkpt>
<trkpt lat="50.767192" lon="3.710032"><time>2026-05-03T00:11:15Z</time></trkpt>
</trkseg></trk>
<trk>
<name>hfbfb1</name>
<cmt>v</cmt>
<desc>Flobecq Chemin n°1 Sentier des Moines</desc>
<link href="https://chemins.be/flobecq/chemin/1"/><trkseg>
<trkpt lat="50.767192" lon="3.710032"><time>2026-05-03T00:11:15Z</time></trkpt>
<trkpt lat="50.767042" lon="3.710213"><time>2026-05-03T00:21:15Z</time></trkpt>
<trkpt lat="50.766882" lon="3.710499"><time>2026-05-03T00:31:15Z</time></trkpt>
<trkpt lat="50.766288" lon="3.712243"><time>2026-05-03T00:41:15Z</time></trkpt>
<trkpt lat="50.765942" lon="3.712752"><time>2026-05-03T00:51:15Z</time></trkpt>
<trkpt lat="50.765910" lon="3.713447"><time>2026-05-03T01:01:15Z</time></trkpt>
<trkpt lat="50.765420" lon="3.714318"><time>2026-05-03T01:11:15Z</time></trkpt>
<trkpt lat="50.764641" lon="3.714939"><time>2026-05-03T01:21:15Z</time></trkpt>
<trkpt lat="50.764638" lon="3.715917"><time>2026-05-03T01:31:15Z</time></trkpt>
<trkpt lat="50.764707" lon="3.716332"><time>2026-05-03T01:41:15Z</time></trkpt>
<trkpt lat="50.764802" lon="3.716354"><time>2026-05-03T01:51:15Z</time></trkpt>
</trkseg>
</trk>
</gpx>